地図

経路データ

SID SEASON NUMBER BASIN SUBBASIN NAME ISO_TIME NATURE LAT LON WMO_WIND WMO_PRES WMO_AGENCY TRACK_TYPE DIST2LAND LANDFALL IFLAG USA_AGENCY USA_ATCF_ID USA_LAT USA_LON USA_RECORD USA_STATUS USA_WIND USA_PRES USA_SSHS USA_R34_NE USA_R34_SE USA_R34_SW USA_R34_NW USA_R50_NE USA_R50_SE USA_R50_SW USA_R50_NW USA_R64_NE USA_R64_SE USA_R64_SW USA_R64_NW USA_POCI USA_ROCI USA_RMW USA_EYE TOKYO_LAT TOKYO_LON TOKYO_GRADE TOKYO_WIND TOKYO_PRES TOKYO_R50_DIR TOKYO_R50_LONG TOKYO_R50_SHORT TOKYO_R30_DIR TOKYO_R30_LONG TOKYO_R30_SHORT TOKYO_LAND CMA_LAT CMA_LON CMA_CAT CMA_WIND CMA_PRES HKO_LAT HKO_LON HKO_CAT HKO_WIND HKO_PRES NEWDELHI_LAT NEWDELHI_LON NEWDELHI_GRADE NEWDELHI_WIND NEWDELHI_PRES NEWDELHI_CI NEWDELHI_DP NEWDELHI_POCI REUNION_LAT REUNION_LON REUNION_TYPE REUNION_WIND REUNION_PRES REUNION_TNUM REUNION_CI REUNION_RMW REUNION_R34_NE REUNION_R34_SE REUNION_R34_SW REUNION_R34_NW REUNION_R50_NE REUNION_R50_SE REUNION_R50_SW REUNION_R50_NW REUNION_R64_NE REUNION_R64_SE REUNION_R64_SW REUNION_R64_NW BOM_LAT BOM_LON BOM_TYPE BOM_WIND BOM_PRES BOM_TNUM BOM_CI BOM_RMW BOM_R34_NE BOM_R34_SE BOM_R34_SW BOM_R34_NW BOM_R50_NE BOM_R50_SE BOM_R50_SW BOM_R50_NW BOM_R64_NE BOM_R64_SE BOM_R64_SW BOM_R64_NW BOM_ROCI BOM_POCI BOM_EYE BOM_POS_METHOD BOM_PRES_METHOD NADI_LAT NADI_LON NADI_CAT NADI_WIND NADI_PRES WELLINGTON_LAT WELLINGTON_LON WELLINGTON_WIND WELLINGTON_PRES DS824_LAT DS824_LON DS824_STAGE DS824_WIND DS824_PRES TD9636_LAT TD9636_LON TD9636_STAGE TD9636_WIND TD9636_PRES TD9635_LAT TD9635_LON TD9635_WIND TD9635_PRES TD9635_ROCI NEUMANN_LAT NEUMANN_LON NEUMANN_CLASS NEUMANN_WIND NEUMANN_PRES MLC_LAT MLC_LON MLC_CLASS MLC_WIND MLC_PRES USA_GUST BOM_GUST BOM_GUST_PER REUNION_GUST REUNION_GUST_PER USA_SEAHGT USA_SEARAD_NE USA_SEARAD_SE USA_SEARAD_SW USA_SEARAD_NW STORM_SPEED STORM_DIR
2001028S15128 2001 3 SI WA TERRI 2001-01-27 18:00:00 TS -15.4000 128.000 main 0 0 O___________O_ jtwc_sh SH072001 -15.4000 128.000 TD 25 -1 -15.4000 128.000 TC 25 9 269
2001028S15128 2001 3 SI WA TERRI 2001-01-27 21:00:00 TS -15.4102 127.510 main 0 0 P___________P_ SH072001 -15.4102 127.510 TD 25 -1 -15.4102 127.510 TC 25 10 270
2001028S15128 2001 3 SI WA TERRI 2001-01-28 00:00:00 TS -15.4000 127.000 main 0 0 O___________O_ jtwc_sh SH072001 -15.4000 127.000 TD 25 -1 -15.4000 127.000 TC 25 10 273
2001028S15128 2001 3 SI WA TERRI 2001-01-28 03:00:00 TS -15.3574 126.457 main 0 0 P___________P_ SH072001 -15.3574 126.457 TD 25 -1 -15.3574 126.457 TC 25 13 282
2001028S15128 2001 3 SI WA TERRI 2001-01-28 04:00:00 TS -15.2122 126.109 25 1002 bom main 0 0 P_____O_____P_ SH072001 -15.3387 126.272 TD 25 -1 -14.2000 124.800 20 25 1002 1.50000 53 3 5 -15.3387 126.272 TC 25 17 288
2001028S15128 2001 3 SI WA TERRI 2001-01-28 06:00:00 TS -15.1047 125.642 main 0 0 O_____P_____O_ jtwc_sh SH072001 -15.3000 125.900 TD 25 -1 -14.3235 124.608 20 25 1001 53 -15.3000 125.900 TC 25 12 280
2001028S15128 2001 3 SI WA TERRI 2001-01-28 09:00:00 TS -15.0412 125.065 main 10 10 P_____P_____P_ SH072001 -15.2349 125.350 TD 25 -1 -14.5249 124.307 20 25 1001 53 -15.2349 125.350 TC 25 12 277
2001028S15128 2001 3 SI WA TERRI 2001-01-28 10:00:00 TS -15.0116 124.844 25 1001 bom main 22 22 P_____O_____P_ SH072001 -15.2174 125.167 TD 25 -1 -14.6000 124.200 20 25 1001 1.50000 53 3 5 -15.2174 125.167 TC 25 10 269
2001028S15128 2001 3 SI WA TERRI 2001-01-28 12:00:00 TS -15.0547 124.525 main 34 34 O_____P_____O_ jtwc_sh SH072001 -15.2000 124.800 TD 25 -1 -14.7642 123.975 20 25 1000 53 -15.2000 124.800 TC 25 10 260
2001028S15128 2001 3 SI WA TERRI 2001-01-28 15:00:00 TS -15.1482 124.030 main 70 62 P_____P_____P_ SH072001 -15.2125 124.235 TD 25 -1 -15.0197 123.619 20 25 1000 53 -15.2125 124.235 TC 25 10 258
2001028S15128 2001 3 SI WA TERRI 2001-01-28 16:00:00 TS -15.1881 123.867 25 1000 bom main 69 78 P_____O_____P_ SH072001 -15.2321 124.051 TD 25 -1 -15.1000 123.500 20 25 1000 2.00000 53 3 5 -15.2321 124.051 TC 25 10 253
2001028S15128 2001 3 SI WA TERRI 2001-01-28 18:00:00 TS -15.2840 123.556 main 92 92 O_____P_____O_ jtwc_sh SH072001 -15.3000 123.700 TD 25 -1 -15.2520 123.267 20 26 999 61 -15.3000 123.700 TC 25 9 249
2001028S15128 2001 3 SI WA TERRI 2001-01-28 21:00:00 TS -15.4674 123.124 main 101 101 P_____P_____P_ SH072001 -15.4774 123.228 TD 27 -1 -15.4473 122.917 20 29 998 75 -15.4774 123.228 TC 27 9 245
2001028S15128 2001 3 SI WA TERRI 2001-01-28 22:00:00 TS -15.5335 122.988 30 998 bom main 108 92 P_____O_____P_ SH072001 -15.5503 123.081 TD 28 -1 -15.5000 122.800 20 30 998 2.50000 80 3 5 -15.5503 123.081 TC 28 9 244
2001028S15128 2001 3 SI WA TERRI 2001-01-29 00:00:00 TS -15.6608 122.719 main 92 89 O_____P_____O_ jtwc_sh SH072001 -15.7000 122.800 TD 30 -1 -15.5825 122.556 20 30 997 80 -15.7000 122.800 TC 30 9 245
2001028S15128 2001 3 SI WA TERRI 2001-01-29 03:00:00 TS -15.8289 122.320 main 101 92 P_____P_____P_ SH072001 -15.9075 122.377 TD 30 -1 -15.6719 122.205 20 30 996 80 -15.9075 122.377 TC 30 8 246
2001028S15128 2001 3 SI WA TERRI 2001-01-29 04:00:00 TS -15.8830 122.197 30 996 bom main 100 100 P_____O_____P_ SH072001 -15.9745 122.245 TD 30 -1 -15.7000 122.100 20 30 996 2.50000 80 3 5 -15.9745 122.245 TC 30 7 244
2001028S15128 2001 3 SI WA TERRI 2001-01-29 06:00:00 TS -15.9907 121.971 main 108 108 O_____P_____O_ jtwc_sh SH072001 -16.1000 122.000 TD 30 -1 -15.7720 121.912 20 31 995 88 -16.1000 122.000 TC 30 7 244
2001028S15128 2001 3 SI WA TERRI 2001-01-29 09:00:00 TS -16.1291 121.676 main 123 123 P_____P_____P_ SH072001 -16.2574 121.677 TD 30 -1 -15.8723 121.672 20 34 994 102 -16.2574 121.677 TC 30 6 244
2001028S15128 2001 3 SI WA TERRI 2001-01-29 10:00:00 TS -16.1702 121.587 35 994 bom main 123 123 P_____O_____P_ SH072001 -16.3054 121.581 TD 30 -1 -15.9000 121.600 30 35 994 3.00000 107 3 5 -16.3054 121.581 TC 30 5 245
2001028S15128 2001 3 SI WA TERRI 2001-01-29 12:00:00 TS -16.2434 121.420 main 139 131 O_____P_____O_ jtwc_sh SH072001 -16.4000 121.400 TD 30 -1 -15.9303 121.459 30 36 993 107 -16.4000 121.400 TC 30 5 244
2001028S15128 2001 3 SI WA TERRI 2001-01-29 15:00:00 TS -16.3531 121.188 main 140 140 P_____P_____P_ SH072001 -16.5424 121.150 TD 30 -1 -15.9745 121.264 30 39 992 107 -16.5424 121.150 TC 30 5 243
2001028S15128 2001 3 SI WA TERRI 2001-01-29 16:00:00 TS -16.3947 121.113 40 992 bom main 149 149 P_____O_____P_ SH072001 -16.5920 121.069 TD 30 -1 -16.0000 121.200 30 40 992 3.00000 107 3 5 -16.5920 121.069 TC 30 5 238
2001028S15128 2001 3 SI WA TERRI 2001-01-29 18:00:00 TS -16.4876 120.965 main 153 153 O_____P_____O_ jtwc_sh SH072001 -16.7000 120.900 TD 30 -1 -16.0629 121.096 30 41 990 115 -16.7000 120.900 TC 30 6 235
2001028S15128 2001 3 SI WA TERRI 2001-01-29 21:00:00 TS -16.6641 120.704 main 173 173 P_____P_____P_ SH072001 -16.8850 120.607 TD 32 -1 -16.2224 120.898 30 44 988 129 -16.8850 120.607 TC 32 6 234
2001028S15128 2001 3 SI WA TERRI 2001-01-29 22:00:00 TS -16.7355 120.604 45 988 bom main 182 179 P_____O_____P_ SH072001 -16.9533 120.505 TD 33 -1 -16.3000 120.800 30 45 988 3.00000 134 3 5 -16.9533 120.505 TC 33 8 233
2001028S15128 2001 3 SI WA TERRI 2001-01-30 00:00:00 TS -16.8954 120.380 main 196 196 O_____P_____O_ jtwc_sh SH072001 -17.1000 120.300 TS 35 0 -16.4863 120.540 30 48 986 134 -17.1000 120.300 TC 35 8 233
2001028S15128 2001 3 SI WA TERRI 2001-01-30 01:00:00 TS -16.9851 120.263 50 985 bom main 202 209 P_____O_____P_ SH072001 -17.1776 120.195 TS 35 0 -16.6000 120.400 30 50 985 3.50000 134 3 5 -17.1776 120.195 TC 35 9 229
2001028S15128 2001 3 SI WA TERRI 2001-01-30 03:00:00 TS -17.1821 120.034 main 227 225 P_____P_____P_ SH072001 -17.3425 119.985 TS 35 0 -16.8612 120.133 30 53 981 134 -17.3425 119.985 TC 35 9 227
2001028S15128 2001 3 SI WA TERRI 2001-01-30 04:00:00 TS -17.2853 119.923 55 980 bom main 235 235 P_____O_____P_ SH072001 -17.4279 119.884 TS 35 0 -17.0000 120.000 30 55 980 4.00000 134 3 5 -17.4279 119.884 TC 35 9 226
2001028S15128 2001 3 SI WA TERRI 2001-01-30 06:00:00 TS -17.4863 119.708 main 244 244 O_____P_____O_ jtwc_sh SH072001 -17.6000 119.700 TS 35 0 -17.2588 119.725 30 58 976 151 -17.6000 119.700 TC 35 8 225
2001028S15128 2001 3 SI WA TERRI 2001-01-30 07:00:00 TS -17.5819 119.609 60 975 bom main 248 246 P_____O_____P_ SH072001 -17.6728 119.614 TS 35 0 -17.4000 119.600 30 60 975 4.00000 161 6 5 -17.6728 119.614 TC 35 8 221
2001028S15128 2001 3 SI WA TERRI 2001-01-30 09:00:00 TS -17.7919 119.435 main 249 238 P_____P_____P_ SH072001 -17.8200 119.462 TS 37 0 -17.7358 119.379 30 60 975 161 -17.8200 119.462 TC 37 8 216
2001028S15128 2001 3 SI WA TERRI 2001-01-30 10:00:00 TS -17.9011 119.366 60 975 bom main 238 218 P_____O_____P_ SH072001 -17.9017 119.399 TS 38 0 -17.9000 119.300 30 60 975 4.00000 161 6 5 -17.9017 119.399 TC 38 7 204
2001028S15128 2001 3 SI WA TERRI 2001-01-30 12:00:00 TS -18.1240 119.274 main 218 200 O_____P_____O_ jtwc_sh SH072001 -18.1000 119.300 TS 40 0 -18.1721 119.222 30 60 975 161 -18.1000 119.300 TC 40 8 199
2001028S15128 2001 3 SI WA TERRI 2001-01-30 13:00:00 TS -18.2549 119.241 60 975 bom main 200 178 P_____O_____P_ SH072001 -18.2324 119.261 TS 40 0 -18.3000 119.200 30 60 975 4.00000 161 6 5 -18.2324 119.261 TC 40 9 192
2001028S15128 2001 3 SI WA TERRI 2001-01-30 15:00:00 TS -18.5482 119.183 main 178 156 P_____P_____P_ SH072001 -18.5350 119.213 TS 42 0 -18.5746 119.125 30 60 975 161 -18.5350 119.213 TC 42 9 188
2001028S15128 2001 3 SI WA TERRI 2001-01-30 16:00:00 TS -18.6960 119.167 60 975 bom main 156 134 P_____O_____P_ SH072001 -18.6940 119.201 TS 43 0 -18.7000 119.100 30 60 975 4.00000 161 6 5 -18.6940 119.201 TC 43 8 182
2001028S15128 2001 3 SI WA TERRI 2001-01-30 18:00:00 TS -18.9685 119.160 main 123 111 O_____P_____O_ jtwc_sh SH072001 -19.0000 119.200 TS 45 0 -18.9054 119.079 30 60 975 161 -19.0000 119.200 TC 45 8 183
2001028S15128 2001 3 SI WA TERRI 2001-01-30 19:00:00 TS -19.0749 119.167 60 975 bom main 111 89 P_____O_____P_ SH072001 -19.1123 119.200 TS 45 0 -19.0000 119.100 30 60 975 4.00000 161 6 6 -19.1123 119.200 TC 45 6 169
2001028S15128 2001 3 SI WA TERRI 2001-01-30 21:00:00 TS -19.2721 119.218 main 89 78 P_____P_____P_ SH072001 -19.3200 119.220 TS 47 0 -19.1763 119.215 30 60 978 161 -19.3200 119.220 TC 47 7 164
2001028S15128 2001 3 SI WA TERRI 2001-01-30 22:00:00 TS -19.3867 119.260 60 980 bom main 78 44 P_____O_____P_ SH072001 -19.4301 119.240 TS 48 0 -19.3000 119.300 30 60 980 4.00000 161 6 6 -19.4301 119.240 TC 48 9 162
2001028S15128 2001 3 SI WA TERRI 2001-01-31 00:00:00 TS -19.6946 119.365 main 44 22 O_____P_____O_ jtwc_sh SH072001 -19.7000 119.300 TS 50 0 -19.6837 119.495 30 60 980 161 -19.7000 119.300 TC 50 10 163
2001028S15128 2001 3 SI WA TERRI 2001-01-31 01:00:00 TS -19.8813 119.422 60 980 bom main 22 0 P_____O_____P_ SH072001 -19.8719 119.336 TS 49 0 -19.9000 119.600 30 60 980 4.00000 161 6 6 -19.8719 119.331 TC 49 12 163
2001028S15128 2001 3 SI WA TERRI 2001-01-31 03:00:00 TS -20.2754 119.547 main 0 0 P_____P_____P_ SH072001 -20.2750 119.428 TS 47 0 -20.2763 119.800 30 60 980 143 -20.2750 119.413 TC 47 13 164
2001028S15128 2001 3 SI WA TERRI 2001-01-31 04:00:00 TS -20.5016 119.616 60 980 bom main 0 0 P_____O_____P_ SH072001 -20.5025 119.481 TS 46 0 -20.5000 119.900 30 60 980 134 6 7 -20.5024 119.466 TC 46 16 165
2001028S15128 2001 3 SI WA TERRI 2001-01-31 06:00:00 TS -21.0279 119.767 main 0 0 O_____P_____O_ jtwc_sh SH072001 -21.0000 119.600 TS 45 0 -21.0837 120.100 30 53 983 134 -21.0000 119.600 TC 45 17 165
2001028S15128 2001 3 SI WA TERRI 2001-01-31 07:00:00 TS -21.2965 119.843 50 985 bom main 0 0 P_____O_____P_ SH072001 -21.2447 119.648 TS 44 0 -21.4000 120.200 30 50 985 134 3 7 -21.2448 119.680 TC 43 17 164
2001028S15128 2001 3 SI WA TERRI 2001-01-31 09:00:00 TS -21.8526 120.009 main 0 0 P_____P_____P_ SH072001 -21.7749 119.756 TS 42 0 -22.0079 120.400 30 46 985 116 -21.7751 119.870 TC 40 18 164
2001028S15128 2001 3 SI WA TERRI 2001-01-31 10:00:00 TS -22.1428 120.100 45 985 bom main 0 0 P_____O_____P_ SH072001 -22.0641 119.823 TS 41 0 -22.3000 120.500 30 45 985 107 3 7 -22.0643 119.976 TC 38 19 163
2001028S15128 2001 3 SI WA TERRI 2001-01-31 12:00:00 TS -22.7463 120.300 main 0 0 O_____P_____O_ jtwc_sh SH072001 -22.7000 120.000 TS 40 0 -22.8388 120.700 30 41 988 107 -22.7000 120.200 TC 35 19 163
2001028S15128 2001 3 SI WA TERRI 2001-01-31 13:00:00 TS -23.0663 120.410 40 990 bom main 0 0 P_____O_____P_ SH072001 -23.0495 120.117 TS 38 0 -23.1000 120.800 30 40 990 107 3 7 -23.0494 120.314 TC 34 21 160
2001028S15128 2001 3 SI WA TERRI 2001-01-31 15:00:00 TS -23.7303 120.684 main 0 0 P_____P_____P_ SH072001 -23.8004 120.400 TS 35 0 -23.6254 121.000 30 40 990 107 -23.8001 120.546 TC 32 21 157
2001028S15128 2001 3 SI WA TERRI 2001-01-31 16:00:00 TS -24.0471 120.856 40 990 bom main 0 0 P_____O_____P_ SH072001 -24.1943 120.560 TS 33 -1 -23.9000 121.100 30 40 990 107 3 7 -24.1940 120.663 TC 31 21 155
2001028S15128 2001 3 SI WA TERRI 2001-01-31 18:00:00 TS -24.6577 121.151 main 0 0 O_____P_____O_ jtwc_sh SH072001 -25.0000 120.900 TD 30 -1 -24.4866 121.277 30 36 990 107 -25.0000 120.900 TC 30 18 147
2001028S15128 2001 3 SI WA TERRI 2001-01-31 19:00:00 NR -24.8000 121.400 35 990 bom main 0 0 ______O_______ SH072001 TD -1 -24.8000 121.400 30 35 990 107 3 7 TC 20 145
2001028S15128 2001 3 SI WA TERRI 2001-01-31 21:00:00 NR -25.4610 121.776 main 0 0 ______P_______ SH072001 TD -1 -25.4610 121.776 30 31 990 107 TC 23 152
2001028S15128 2001 3 SI WA TERRI 2001-01-31 22:00:00 NR -25.8000 122.000 30 990 bom main 0 ______O_______ SH072001 TD -1 -25.8000 122.000 80 30 990 107 3 7 TC 24 149

IBTrACS Databaseについて

本データベースは、米国NOAAが公開する1842年以降の世界の熱帯低気圧のベストトラックデータアーカイブInternational Best Track Archive for Climate Stewardship (IBTrACS)を、ウェブで閲覧しやすい形式に変換したものです。

最終更新日:2021-10-21